Airfield :
LOGIN :

Register | Disclaimer

   EN    FR    IT 

 










Legend :    VFR   Marginal VFR   IFR   Intensive IFR   Very Intensive IFR
Visi :
Ceiling :
>= 8 km
>= 3000ft
5 to 8 km
1000 to 3000 ft
1500m to 5 km
500 to 1000 ft
800 to 1500m
200 to 500 ft
< 800m
< 200 ft
Symbols :   Thunderstorms  Fog  Heavy snow  Heavy precipitations  Wind > 20 kt
SIGMETs :     Misc.  Thunderstorms  Icing  Turbulence  Mountain Waves  Volcanic Ashes






- Airport Elevation : 297 ft
- IATA code : ODB


LEBA - Córdoba

CURRENT METAR :
  • 072230Z AUTO 20003KT CAVOK 30/13 Q1012

EXPIRED METARs :
  • 072200Z AUTO 00000KT CAVOK 31/13 Q1012
  • 072130Z AUTO VRB02KT CAVOK 32/11 Q1012
  • 072100Z AUTO 23005KT CAVOK 31/13 Q1012
  • 072030Z AUTO 26006KT CAVOK 34/12 Q1011
  • 072000Z AUTO 26007KT CAVOK 35/11 Q1011

TAF TAF LEBA
Valid from the 07 at 18:00 until the 08 at 03:00 UTC


071700Z 0718/0803 25009KT CAVOK



MET'MAP, your aeronautical weather chart ! - Copyright ORBIFLY December 2007 - Disclaimer

ORBIFLY MET'MAP TEAM :

Programming & Development : Alexandra Zaïnal
Concept & original design : Baudouin d'Aumeries
Assistance for programming : Marc-Olivier Méhu
Technical & hardware support : Manuel Goepfert

Contact : metmap@orbifly.com




SOURCES & CREDITS :

   NOAA